sensor_id;sensor_type;location;lat;lon;timestamp;P1;durP1;ratioP1;P2;durP2;ratioP2
54993;SDS011;40891;47.242;8.648;2022-12-17T00:02:37;17.43;;;9.27;;
54993;SDS011;40891;47.242;8.648;2022-12-17T00:05:22;18.80;;;9.07;;
54993;SDS011;40891;47.242;8.648;2022-12-17T00:08:05;17.93;;;9.17;;
54993;SDS011;40891;47.242;8.648;2022-12-17T00:10:50;20.20;;;10.00;;
54993;SDS011;40891;47.242;8.648;2022-12-17T00:13:33;20.70;;;10.43;;
54993;SDS011;40891;47.242;8.648;2022-12-17T00:16:17;16.40;;;8.97;;
54993;SDS011;40891;47.242;8.648;2022-12-17T00:19:01;16.10;;;8.03;;
54993;SDS011;40891;47.242;8.648;2022-12-17T00:21:45;18.23;;;9.20;;
54993;SDS011;40891;47.242;8.648;2022-12-17T00:24:29;17.07;;;9.20;;
54993;SDS011;40891;47.242;8.648;2022-12-17T00:27:13;19.17;;;8.87;;
54993;SDS011;40891;47.242;8.648;2022-12-17T00:29:57;22.10;;;9.93;;
54993;SDS011;40891;47.242;8.648;2022-12-17T00:32:41;17.47;;;9.87;;
54993;SDS011;40891;47.242;8.648;2022-12-17T00:35:25;16.10;;;8.67;;
54993;SDS011;40891;47.242;8.648;2022-12-17T00:38:13;16.67;;;9.67;;
54993;SDS011;40891;47.242;8.648;2022-12-17T00:40:58;18.93;;;9.03;;
54993;SDS011;40891;47.242;8.648;2022-12-17T00:43:42;14.70;;;8.17;;
54993;SDS011;40891;47.242;8.648;2022-12-17T00:46:26;22.63;;;9.43;;
54993;SDS011;40891;47.242;8.648;2022-12-17T00:49:09;19.50;;;10.07;;
54993;SDS011;40891;47.242;8.648;2022-12-17T00:51:53;18.93;;;9.33;;
54993;SDS011;40891;47.242;8.648;2022-12-17T00:54:37;18.27;;;9.10;;
54993;SDS011;40891;47.242;8.648;2022-12-17T00:57:21;19.07;;;9.20;;
54993;SDS011;40891;47.242;8.648;2022-12-17T01:00:06;14.83;;;8.53;;
54993;SDS011;40891;47.242;8.648;2022-12-17T01:02:50;22.03;;;9.93;;
54993;SDS011;40891;47.242;8.648;2022-12-17T01:05:34;16.70;;;8.50;;
54993;SDS011;40891;47.242;8.648;2022-12-17T01:08:18;18.93;;;9.47;;
54993;SDS011;40891;47.242;8.648;2022-12-17T01:11:03;19.00;;;9.47;;
54993;SDS011;40891;47.242;8.648;2022-12-17T01:13:50;18.77;;;9.10;;
54993;SDS011;40891;47.242;8.648;2022-12-17T01:16:35;18.20;;;9.70;;
54993;SDS011;40891;47.242;8.648;2022-12-17T01:19:19;22.17;;;10.07;;
54993;SDS011;40891;47.242;8.648;2022-12-17T01:22:03;21.93;;;10.03;;
54993;SDS011;40891;47.242;8.648;2022-12-17T01:24:47;22.17;;;10.50;;
54993;SDS011;40891;47.242;8.648;2022-12-17T01:27:31;19.13;;;9.70;;
54993;SDS011;40891;47.242;8.648;2022-12-17T01:30:14;19.90;;;10.10;;
54993;SDS011;40891;47.242;8.648;2022-12-17T01:32:59;20.97;;;10.50;;
54993;SDS011;40891;47.242;8.648;2022-12-17T01:35:44;21.77;;;10.57;;
54993;SDS011;40891;47.242;8.648;2022-12-17T01:38:36;22.00;;;10.37;;
54993;SDS011;40891;47.242;8.648;2022-12-17T01:41:20;21.67;;;10.47;;
54993;SDS011;40891;47.242;8.648;2022-12-17T01:47:28;21.03;;;10.87;;
54993;SDS011;40891;47.242;8.648;2022-12-17T01:50:15;25.27;;;11.40;;
54993;SDS011;40891;47.242;8.648;2022-12-17T01:53:01;22.00;;;11.30;;
54993;SDS011;40891;47.242;8.648;2022-12-17T01:55:47;24.73;;;11.00;;
54993;SDS011;40891;47.242;8.648;2022-12-17T01:58:31;24.67;;;11.20;;
54993;SDS011;40891;47.242;8.648;2022-12-17T02:01:17;25.63;;;10.73;;
54993;SDS011;40891;47.242;8.648;2022-12-17T02:04:01;23.40;;;11.17;;
54993;SDS011;40891;47.242;8.648;2022-12-17T02:06:49;32.90;;;11.83;;
54993;SDS011;40891;47.242;8.648;2022-12-17T02:10:10;26.63;;;11.93;;
54993;SDS011;40891;47.242;8.648;2022-12-17T02:12:54;28.67;;;11.17;;
54993;SDS011;40891;47.242;8.648;2022-12-17T02:15:46;21.40;;;10.83;;
54993;SDS011;40891;47.242;8.648;2022-12-17T02:18:37;25.80;;;10.10;;
54993;SDS011;40891;47.242;8.648;2022-12-17T02:21:25;23.50;;;12.00;;
54993;SDS011;40891;47.242;8.648;2022-12-17T02:27:01;23.23;;;11.43;;
54993;SDS011;40891;47.242;8.648;2022-12-17T02:29:48;24.20;;;11.63;;
54993;SDS011;40891;47.242;8.648;2022-12-17T02:32:37;28.03;;;12.93;;
54993;SDS011;40891;47.242;8.648;2022-12-17T02:35:36;31.27;;;12.40;;
54993;SDS011;40891;47.242;8.648;2022-12-17T02:38:24;25.07;;;12.33;;
54993;SDS011;40891;47.242;8.648;2022-12-17T02:41:14;26.13;;;12.07;;
54993;SDS011;40891;47.242;8.648;2022-12-17T02:44:21;25.83;;;12.40;;
54993;SDS011;40891;47.242;8.648;2022-12-17T02:47:07;29.83;;;13.33;;
54993;SDS011;40891;47.242;8.648;2022-12-17T02:49:53;28.20;;;13.40;;
54993;SDS011;40891;47.242;8.648;2022-12-17T02:52:38;27.07;;;13.10;;
54993;SDS011;40891;47.242;8.648;2022-12-17T02:55:25;27.03;;;12.80;;
54993;SDS011;40891;47.242;8.648;2022-12-17T02:58:10;27.23;;;12.53;;
54993;SDS011;40891;47.242;8.648;2022-12-17T03:00:53;30.30;;;13.80;;
54993;SDS011;40891;47.242;8.648;2022-12-17T03:03:38;30.20;;;14.40;;
54993;SDS011;40891;47.242;8.648;2022-12-17T03:06:21;32.97;;;14.80;;
54993;SDS011;40891;47.242;8.648;2022-12-17T03:09:05;36.53;;;14.73;;
54993;SDS011;40891;47.242;8.648;2022-12-17T03:11:49;29.07;;;14.67;;
54993;SDS011;40891;47.242;8.648;2022-12-17T03:14:33;31.07;;;14.87;;
54993;SDS011;40891;47.242;8.648;2022-12-17T03:17:17;32.17;;;14.20;;
54993;SDS011;40891;47.242;8.648;2022-12-17T03:20:01;30.93;;;14.03;;
54993;SDS011;40891;47.242;8.648;2022-12-17T03:22:46;32.63;;;14.83;;
54993;SDS011;40891;47.242;8.648;2022-12-17T03:25:30;30.07;;;14.60;;
54993;SDS011;40891;47.242;8.648;2022-12-17T03:28:13;30.10;;;15.57;;
54993;SDS011;40891;47.242;8.648;2022-12-17T03:30:58;35.17;;;14.43;;
54993;SDS011;40891;47.242;8.648;2022-12-17T03:33:43;35.10;;;17.07;;
54993;SDS011;40891;47.242;8.648;2022-12-17T03:36:27;31.40;;;15.73;;
54993;SDS011;40891;47.242;8.648;2022-12-17T03:39:11;32.20;;;15.10;;
54993;SDS011;40891;47.242;8.648;2022-12-17T03:41:55;30.20;;;13.37;;
54993;SDS011;40891;47.242;8.648;2022-12-17T03:44:39;35.90;;;16.17;;
54993;SDS011;40891;47.242;8.648;2022-12-17T03:47:23;32.60;;;15.83;;
54993;SDS011;40891;47.242;8.648;2022-12-17T03:50:07;35.53;;;16.57;;
54993;SDS011;40891;47.242;8.648;2022-12-17T03:52:51;30.40;;;15.30;;
54993;SDS011;40891;47.242;8.648;2022-12-17T03:55:35;33.23;;;16.63;;
54993;SDS011;40891;47.242;8.648;2022-12-17T03:58:19;31.70;;;15.67;;
54993;SDS011;40891;47.242;8.648;2022-12-17T04:01:03;32.33;;;15.90;;
54993;SDS011;40891;47.242;8.648;2022-12-17T04:03:47;32.90;;;15.03;;
54993;SDS011;40891;47.242;8.648;2022-12-17T04:06:31;33.33;;;15.83;;
54993;SDS011;40891;47.242;8.648;2022-12-17T04:09:15;32.33;;;15.87;;
54993;SDS011;40891;47.242;8.648;2022-12-17T04:11:58;32.80;;;15.83;;
54993;SDS011;40891;47.242;8.648;2022-12-17T04:14:42;33.90;;;15.23;;
54993;SDS011;40891;47.242;8.648;2022-12-17T04:17:26;34.43;;;16.30;;
54993;SDS011;40891;47.242;8.648;2022-12-17T04:20:10;34.57;;;16.23;;
54993;SDS011;40891;47.242;8.648;2022-12-17T04:22:54;35.23;;;16.47;;
54993;SDS011;40891;47.242;8.648;2022-12-17T04:25:38;32.87;;;17.10;;
54993;SDS011;40891;47.242;8.648;2022-12-17T04:28:22;34.87;;;15.40;;
54993;SDS011;40891;47.242;8.648;2022-12-17T04:31:06;33.23;;;15.10;;
54993;SDS011;40891;47.242;8.648;2022-12-17T04:33:50;34.80;;;16.07;;
54993;SDS011;40891;47.242;8.648;2022-12-17T04:36:34;34.17;;;16.73;;
54993;SDS011;40891;47.242;8.648;2022-12-17T04:39:19;36.73;;;16.63;;
54993;SDS011;40891;47.242;8.648;2022-12-17T04:42:03;33.43;;;16.33;;
54993;SDS011;40891;47.242;8.648;2022-12-17T04:44:47;34.00;;;16.63;;
54993;SDS011;40891;47.242;8.648;2022-12-17T04:47:31;36.37;;;16.87;;
54993;SDS011;40891;47.242;8.648;2022-12-17T04:50:15;35.20;;;16.40;;
54993;SDS011;40891;47.242;8.648;2022-12-17T04:52:59;37.47;;;17.47;;
54993;SDS011;40891;47.242;8.648;2022-12-17T04:55:45;36.17;;;16.23;;
54993;SDS011;40891;47.242;8.648;2022-12-17T04:58:29;30.57;;;14.83;;
54993;SDS011;40891;47.242;8.648;2022-12-17T05:01:13;26.37;;;11.83;;
54993;SDS011;40891;47.242;8.648;2022-12-17T05:03:57;32.83;;;15.67;;
54993;SDS011;40891;47.242;8.648;2022-12-17T05:06:41;37.77;;;16.53;;
54993;SDS011;40891;47.242;8.648;2022-12-17T05:09:25;36.37;;;17.67;;
54993;SDS011;40891;47.242;8.648;2022-12-17T05:12:09;40.80;;;16.60;;
54993;SDS011;40891;47.242;8.648;2022-12-17T05:14:53;32.60;;;16.63;;
54993;SDS011;40891;47.242;8.648;2022-12-17T05:17:37;32.00;;;15.93;;
54993;SDS011;40891;47.242;8.648;2022-12-17T05:20:20;36.90;;;15.87;;
54993;SDS011;40891;47.242;8.648;2022-12-17T05:23:05;31.57;;;16.33;;
54993;SDS011;40891;47.242;8.648;2022-12-17T05:28:47;38.07;;;18.07;;
54993;SDS011;40891;47.242;8.648;2022-12-17T05:31:31;33.60;;;16.13;;
54993;SDS011;40891;47.242;8.648;2022-12-17T05:34:15;44.53;;;17.27;;
54993;SDS011;40891;47.242;8.648;2022-12-17T05:36:59;37.33;;;17.67;;
54993;SDS011;40891;47.242;8.648;2022-12-17T05:39:42;34.93;;;16.67;;
54993;SDS011;40891;47.242;8.648;2022-12-17T05:42:34;36.73;;;17.43;;
54993;SDS011;40891;47.242;8.648;2022-12-17T05:45:18;36.43;;;17.30;;
54993;SDS011;40891;47.242;8.648;2022-12-17T05:48:02;33.63;;;17.33;;
54993;SDS011;40891;47.242;8.648;2022-12-17T05:50:49;35.70;;;16.17;;
54993;SDS011;40891;47.242;8.648;2022-12-17T05:53:34;35.00;;;17.27;;
54993;SDS011;40891;47.242;8.648;2022-12-17T05:56:18;32.97;;;16.77;;
54993;SDS011;40891;47.242;8.648;2022-12-17T05:59:09;36.27;;;17.17;;
54993;SDS011;40891;47.242;8.648;2022-12-17T06:01:53;36.17;;;17.00;;
54993;SDS011;40891;47.242;8.648;2022-12-17T06:04:37;33.03;;;16.47;;
54993;SDS011;40891;47.242;8.648;2022-12-17T06:07:21;37.17;;;16.70;;
54993;SDS011;40891;47.242;8.648;2022-12-17T06:10:05;33.27;;;16.10;;
54993;SDS011;40891;47.242;8.648;2022-12-17T06:12:55;35.47;;;17.00;;
54993;SDS011;40891;47.242;8.648;2022-12-17T06:15:40;37.60;;;17.20;;
54993;SDS011;40891;47.242;8.648;2022-12-17T06:18:24;34.13;;;16.77;;
54993;SDS011;40891;47.242;8.648;2022-12-17T06:21:09;36.13;;;17.43;;
54993;SDS011;40891;47.242;8.648;2022-12-17T06:23:52;40.30;;;18.17;;
54993;SDS011;40891;47.242;8.648;2022-12-17T06:26:36;34.77;;;16.93;;
54993;SDS011;40891;47.242;8.648;2022-12-17T06:29:20;37.20;;;18.57;;
54993;SDS011;40891;47.242;8.648;2022-12-17T06:32:04;38.37;;;18.40;;
54993;SDS011;40891;47.242;8.648;2022-12-17T06:34:48;39.13;;;18.57;;
54993;SDS011;40891;47.242;8.648;2022-12-17T06:37:32;41.67;;;20.13;;
54993;SDS011;40891;47.242;8.648;2022-12-17T06:40:16;44.60;;;20.17;;
54993;SDS011;40891;47.242;8.648;2022-12-17T06:43:00;34.37;;;15.57;;
54993;SDS011;40891;47.242;8.648;2022-12-17T06:45:44;36.83;;;16.47;;
54993;SDS011;40891;47.242;8.648;2022-12-17T06:48:28;41.40;;;19.47;;
54993;SDS011;40891;47.242;8.648;2022-12-17T06:51:12;45.00;;;19.77;;
54993;SDS011;40891;47.242;8.648;2022-12-17T06:53:56;39.43;;;18.80;;
54993;SDS011;40891;47.242;8.648;2022-12-17T06:56:40;34.60;;;17.47;;
54993;SDS011;40891;47.242;8.648;2022-12-17T06:59:24;41.27;;;18.73;;
54993;SDS011;40891;47.242;8.648;2022-12-17T07:02:09;40.33;;;19.30;;
54993;SDS011;40891;47.242;8.648;2022-12-17T07:04:53;40.07;;;18.27;;
54993;SDS011;40891;47.242;8.648;2022-12-17T07:07:37;44.30;;;19.60;;
54993;SDS011;40891;47.242;8.648;2022-12-17T07:10:21;40.80;;;19.03;;
54993;SDS011;40891;47.242;8.648;2022-12-17T07:13:05;39.27;;;18.57;;
54993;SDS011;40891;47.242;8.648;2022-12-17T07:15:51;32.10;;;15.17;;
54993;SDS011;40891;47.242;8.648;2022-12-17T07:18:36;31.23;;;14.47;;
54993;SDS011;40891;47.242;8.648;2022-12-17T07:21:20;41.57;;;20.17;;
54993;SDS011;40891;47.242;8.648;2022-12-17T07:24:05;43.80;;;18.97;;
54993;SDS011;40891;47.242;8.648;2022-12-17T07:26:48;44.33;;;21.33;;
54993;SDS011;40891;47.242;8.648;2022-12-17T07:29:32;33.97;;;16.90;;
54993;SDS011;40891;47.242;8.648;2022-12-17T07:32:16;42.13;;;19.33;;
54993;SDS011;40891;47.242;8.648;2022-12-17T07:35:20;46.17;;;19.50;;
54993;SDS011;40891;47.242;8.648;2022-12-17T07:38:03;36.47;;;17.17;;
54993;SDS011;40891;47.242;8.648;2022-12-17T07:40:47;39.30;;;18.33;;
54993;SDS011;40891;47.242;8.648;2022-12-17T07:43:32;41.00;;;19.03;;
54993;SDS011;40891;47.242;8.648;2022-12-17T07:46:17;35.10;;;15.60;;
54993;SDS011;40891;47.242;8.648;2022-12-17T07:49:01;44.57;;;20.10;;
54993;SDS011;40891;47.242;8.648;2022-12-17T07:51:45;45.07;;;20.20;;
54993;SDS011;40891;47.242;8.648;2022-12-17T07:54:29;42.50;;;18.83;;
54993;SDS011;40891;47.242;8.648;2022-12-17T07:57:13;44.73;;;20.13;;
54993;SDS011;40891;47.242;8.648;2022-12-17T07:59:56;43.07;;;20.17;;
54993;SDS011;40891;47.242;8.648;2022-12-17T08:02:40;40.57;;;19.20;;
54993;SDS011;40891;47.242;8.648;2022-12-17T08:05:24;44.23;;;20.30;;
54993;SDS011;40891;47.242;8.648;2022-12-17T08:08:09;49.43;;;21.90;;
54993;SDS011;40891;47.242;8.648;2022-12-17T08:10:54;42.87;;;20.47;;
54993;SDS011;40891;47.242;8.648;2022-12-17T08:13:38;42.73;;;19.87;;
54993;SDS011;40891;47.242;8.648;2022-12-17T08:16:22;35.20;;;16.63;;
54993;SDS011;40891;47.242;8.648;2022-12-17T08:19:06;39.93;;;19.17;;
54993;SDS011;40891;47.242;8.648;2022-12-17T08:21:50;36.80;;;15.33;;
54993;SDS011;40891;47.242;8.648;2022-12-17T08:24:34;37.10;;;18.93;;
54993;SDS011;40891;47.242;8.648;2022-12-17T08:27:18;47.00;;;21.00;;
54993;SDS011;40891;47.242;8.648;2022-12-17T08:30:02;40.00;;;18.77;;
54993;SDS011;40891;47.242;8.648;2022-12-17T08:32:46;36.43;;;18.63;;
54993;SDS011;40891;47.242;8.648;2022-12-17T08:35:31;41.27;;;19.27;;
54993;SDS011;40891;47.242;8.648;2022-12-17T08:38:15;34.53;;;17.03;;
54993;SDS011;40891;47.242;8.648;2022-12-17T08:40:59;38.83;;;18.40;;
54993;SDS011;40891;47.242;8.648;2022-12-17T08:43:44;35.10;;;17.23;;
54993;SDS011;40891;47.242;8.648;2022-12-17T08:46:28;40.00;;;18.60;;
54993;SDS011;40891;47.242;8.648;2022-12-17T08:49:12;40.07;;;18.30;;
54993;SDS011;40891;47.242;8.648;2022-12-17T08:51:56;39.97;;;19.80;;
54993;SDS011;40891;47.242;8.648;2022-12-17T08:54:40;37.47;;;18.43;;
54993;SDS011;40891;47.242;8.648;2022-12-17T08:57:24;41.10;;;20.17;;
54993;SDS011;40891;47.242;8.648;2022-12-17T09:00:08;29.77;;;14.33;;
54993;SDS011;40891;47.242;8.648;2022-12-17T09:02:56;39.17;;;19.93;;
54993;SDS011;40891;47.242;8.648;2022-12-17T09:05:41;30.20;;;16.40;;
54993;SDS011;40891;47.242;8.648;2022-12-17T09:08:26;38.90;;;18.73;;
54993;SDS011;40891;47.242;8.648;2022-12-17T09:11:10;36.77;;;19.07;;
54993;SDS011;40891;47.242;8.648;2022-12-17T09:13:54;34.13;;;16.57;;
54993;SDS011;40891;47.242;8.648;2022-12-17T09:16:38;38.60;;;18.43;;
54993;SDS011;40891;47.242;8.648;2022-12-17T09:19:22;37.87;;;17.27;;
54993;SDS011;40891;47.242;8.648;2022-12-17T09:22:06;37.37;;;19.20;;
54993;SDS011;40891;47.242;8.648;2022-12-17T09:24:49;38.53;;;18.63;;
54993;SDS011;40891;47.242;8.648;2022-12-17T09:27:33;37.87;;;18.80;;
54993;SDS011;40891;47.242;8.648;2022-12-17T09:30:17;39.70;;;19.53;;
54993;SDS011;40891;47.242;8.648;2022-12-17T09:33:01;38.47;;;19.47;;
54993;SDS011;40891;47.242;8.648;2022-12-17T09:35:45;37.67;;;19.23;;
54993;SDS011;40891;47.242;8.648;2022-12-17T09:38:29;38.47;;;19.47;;
54993;SDS011;40891;47.242;8.648;2022-12-17T09:41:32;36.97;;;18.40;;
54993;SDS011;40891;47.242;8.648;2022-12-17T09:44:43;35.93;;;17.77;;
54993;SDS011;40891;47.242;8.648;2022-12-17T09:50:44;39.90;;;18.93;;
54993;SDS011;40891;47.242;8.648;2022-12-17T09:56:43;44.70;;;19.03;;
54993;SDS011;40891;47.242;8.648;2022-12-17T09:59:28;37.43;;;18.43;;
54993;SDS011;40891;47.242;8.648;2022-12-17T10:02:23;39.50;;;19.70;;
54993;SDS011;40891;47.242;8.648;2022-12-17T10:05:13;38.57;;;17.47;;
54993;SDS011;40891;47.242;8.648;2022-12-17T10:08:02;40.93;;;19.87;;
54993;SDS011;40891;47.242;8.648;2022-12-17T10:10:48;43.77;;;19.30;;
54993;SDS011;40891;47.242;8.648;2022-12-17T10:13:31;36.43;;;17.87;;
54993;SDS011;40891;47.242;8.648;2022-12-17T10:16:20;39.27;;;17.63;;
54993;SDS011;40891;47.242;8.648;2022-12-17T10:19:10;36.80;;;17.70;;
54993;SDS011;40891;47.242;8.648;2022-12-17T10:22:17;40.23;;;19.00;;
54993;SDS011;40891;47.242;8.648;2022-12-17T10:25:03;34.03;;;18.00;;
54993;SDS011;40891;47.242;8.648;2022-12-17T10:28:03;37.37;;;18.47;;
54993;SDS011;40891;47.242;8.648;2022-12-17T10:30:49;39.67;;;19.20;;
54993;SDS011;40891;47.242;8.648;2022-12-17T10:33:35;36.87;;;18.97;;
54993;SDS011;40891;47.242;8.648;2022-12-17T10:36:22;40.63;;;18.87;;
54993;SDS011;40891;47.242;8.648;2022-12-17T10:39:12;36.20;;;17.97;;
54993;SDS011;40891;47.242;8.648;2022-12-17T10:42:02;40.13;;;19.20;;
54993;SDS011;40891;47.242;8.648;2022-12-17T10:45:16;36.73;;;17.30;;
54993;SDS011;40891;47.242;8.648;2022-12-17T10:48:18;36.77;;;19.30;;
54993;SDS011;40891;47.242;8.648;2022-12-17T10:51:02;40.67;;;19.83;;
54993;SDS011;40891;47.242;8.648;2022-12-17T10:53:50;38.43;;;18.10;;
54993;SDS011;40891;47.242;8.648;2022-12-17T10:56:36;37.20;;;18.50;;
54993;SDS011;40891;47.242;8.648;2022-12-17T10:59:35;38.77;;;19.03;;
54993;SDS011;40891;47.242;8.648;2022-12-17T11:02:26;37.10;;;17.83;;
54993;SDS011;40891;47.242;8.648;2022-12-17T11:05:24;39.63;;;19.17;;
54993;SDS011;40891;47.242;8.648;2022-12-17T11:08:11;37.17;;;18.93;;
54993;SDS011;40891;47.242;8.648;2022-12-17T11:10:58;36.77;;;19.60;;
54993;SDS011;40891;47.242;8.648;2022-12-17T11:13:45;37.23;;;18.67;;
54993;SDS011;40891;47.242;8.648;2022-12-17T11:16:34;36.47;;;18.73;;
54993;SDS011;40891;47.242;8.648;2022-12-17T11:22:48;38.23;;;18.80;;
54993;SDS011;40891;47.242;8.648;2022-12-17T11:28:32;35.93;;;17.77;;
54993;SDS011;40891;47.242;8.648;2022-12-17T11:37:52;39.43;;;18.80;;
54993;SDS011;40891;47.242;8.648;2022-12-17T11:41:08;40.83;;;20.17;;
54993;SDS011;40891;47.242;8.648;2022-12-17T11:44:00;39.13;;;18.60;;
54993;SDS011;40891;47.242;8.648;2022-12-17T11:53:04;40.83;;;19.93;;
54993;SDS011;40891;47.242;8.648;2022-12-17T11:55:59;37.47;;;19.40;;
54993;SDS011;40891;47.242;8.648;2022-12-17T11:58:51;37.27;;;18.83;;
54993;SDS011;40891;47.242;8.648;2022-12-17T12:02:03;36.60;;;18.13;;
54993;SDS011;40891;47.242;8.648;2022-12-17T12:08:03;41.10;;;19.70;;
54993;SDS011;40891;47.242;8.648;2022-12-17T12:23:14;40.97;;;18.70;;
54993;SDS011;40891;47.242;8.648;2022-12-17T12:26:26;40.07;;;20.50;;
54993;SDS011;40891;47.242;8.648;2022-12-17T12:32:15;39.43;;;19.80;;
54993;SDS011;40891;47.242;8.648;2022-12-17T12:35:04;37.20;;;18.87;;
54993;SDS011;40891;47.242;8.648;2022-12-17T12:38:02;39.97;;;19.30;;
54993;SDS011;40891;47.242;8.648;2022-12-17T12:40:51;41.03;;;20.03;;
54993;SDS011;40891;47.242;8.648;2022-12-17T12:43:42;36.93;;;19.03;;
54993;SDS011;40891;47.242;8.648;2022-12-17T12:46:51;42.77;;;21.17;;
54993;SDS011;40891;47.242;8.648;2022-12-17T12:49:42;38.50;;;19.50;;
54993;SDS011;40891;47.242;8.648;2022-12-17T12:52:35;38.03;;;20.10;;
54993;SDS011;40891;47.242;8.648;2022-12-17T12:55:20;36.27;;;18.80;;
54993;SDS011;40891;47.242;8.648;2022-12-17T12:58:04;40.07;;;20.30;;
54993;SDS011;40891;47.242;8.648;2022-12-17T13:01:06;39.07;;;19.40;;
54993;SDS011;40891;47.242;8.648;2022-12-17T13:03:51;40.53;;;20.47;;
54993;SDS011;40891;47.242;8.648;2022-12-17T13:06:53;37.30;;;19.83;;
54993;SDS011;40891;47.242;8.648;2022-12-17T13:12:15;35.93;;;19.63;;
54993;SDS011;40891;47.242;8.648;2022-12-17T13:14:44;37.90;;;19.10;;
54993;SDS011;40891;47.242;8.648;2022-12-17T13:22:23;35.20;;;19.10;;
54993;SDS011;40891;47.242;8.648;2022-12-17T13:24:51;35.67;;;18.87;;
54993;SDS011;40891;47.242;8.648;2022-12-17T13:30:18;35.50;;;19.50;;
54993;SDS011;40891;47.242;8.648;2022-12-17T13:33:04;33.20;;;16.90;;
54993;SDS011;40891;47.242;8.648;2022-12-17T13:41:30;39.17;;;18.47;;
54993;SDS011;40891;47.242;8.648;2022-12-17T13:43:57;35.97;;;18.13;;
54993;SDS011;40891;47.242;8.648;2022-12-17T13:46:46;31.43;;;18.17;;
54993;SDS011;40891;47.242;8.648;2022-12-17T13:49:15;39.00;;;18.53;;
54993;SDS011;40891;47.242;8.648;2022-12-17T13:52:34;34.47;;;17.47;;
54993;SDS011;40891;47.242;8.648;2022-12-17T13:54:44;35.00;;;17.60;;
54993;SDS011;40891;47.242;8.648;2022-12-17T13:57:17;37.17;;;19.27;;
54993;SDS011;40891;47.242;8.648;2022-12-17T13:59:55;40.70;;;19.73;;
54993;SDS011;40891;47.242;8.648;2022-12-17T14:02:31;37.03;;;18.80;;
54993;SDS011;40891;47.242;8.648;2022-12-17T14:04:59;35.70;;;18.77;;
54993;SDS011;40891;47.242;8.648;2022-12-17T14:07:26;34.47;;;18.57;;
54993;SDS011;40891;47.242;8.648;2022-12-17T14:09:53;36.90;;;18.33;;
54993;SDS011;40891;47.242;8.648;2022-12-17T14:12:20;36.80;;;19.23;;
54993;SDS011;40891;47.242;8.648;2022-12-17T14:15:06;36.50;;;19.10;;
54993;SDS011;40891;47.242;8.648;2022-12-17T14:17:44;41.00;;;18.87;;
54993;SDS011;40891;47.242;8.648;2022-12-17T14:22:46;35.43;;;17.93;;
54993;SDS011;40891;47.242;8.648;2022-12-17T14:25:21;29.90;;;17.47;;
54993;SDS011;40891;47.242;8.648;2022-12-17T14:27:54;37.10;;;18.40;;
54993;SDS011;40891;47.242;8.648;2022-12-17T14:32:57;32.80;;;17.20;;
54993;SDS011;40891;47.242;8.648;2022-12-17T14:35:27;29.47;;;17.00;;
54993;SDS011;40891;47.242;8.648;2022-12-17T14:37:54;31.90;;;17.07;;
54993;SDS011;40891;47.242;8.648;2022-12-17T14:40:21;38.37;;;17.67;;
54993;SDS011;40891;47.242;8.648;2022-12-17T14:42:48;37.97;;;17.00;;
54993;SDS011;40891;47.242;8.648;2022-12-17T14:47:50;36.83;;;18.10;;
54993;SDS011;40891;47.242;8.648;2022-12-17T14:55:29;34.97;;;18.40;;
54993;SDS011;40891;47.242;8.648;2022-12-17T14:58:07;39.37;;;18.37;;
54993;SDS011;40891;47.242;8.648;2022-12-17T15:00:37;36.27;;;19.23;;
54993;SDS011;40891;47.242;8.648;2022-12-17T15:03:24;42.00;;;19.53;;
54993;SDS011;40891;47.242;8.648;2022-12-17T15:05:55;40.30;;;19.10;;
54993;SDS011;40891;47.242;8.648;2022-12-17T15:08:22;36.20;;;17.83;;
54993;SDS011;40891;47.242;8.648;2022-12-17T15:10:48;35.43;;;19.43;;
54993;SDS011;40891;47.242;8.648;2022-12-17T15:13:14;36.23;;;18.83;;
54993;SDS011;40891;47.242;8.648;2022-12-17T15:15:39;37.73;;;18.37;;
54993;SDS011;40891;47.242;8.648;2022-12-17T15:18:05;34.83;;;18.33;;
54993;SDS011;40891;47.242;8.648;2022-12-17T15:20:30;38.03;;;18.40;;
54993;SDS011;40891;47.242;8.648;2022-12-17T15:22:56;34.10;;;18.10;;
54993;SDS011;40891;47.242;8.648;2022-12-17T15:25:21;32.50;;;16.73;;
54993;SDS011;40891;47.242;8.648;2022-12-17T15:27:47;35.97;;;18.23;;
54993;SDS011;40891;47.242;8.648;2022-12-17T15:30:13;36.40;;;17.50;;
54993;SDS011;40891;47.242;8.648;2022-12-17T15:32:40;35.87;;;18.30;;
54993;SDS011;40891;47.242;8.648;2022-12-17T15:35:06;37.87;;;18.33;;
54993;SDS011;40891;47.242;8.648;2022-12-17T15:37:32;34.07;;;17.47;;
54993;SDS011;40891;47.242;8.648;2022-12-17T15:39:57;39.47;;;19.10;;
54993;SDS011;40891;47.242;8.648;2022-12-17T15:42:23;34.53;;;17.80;;
54993;SDS011;40891;47.242;8.648;2022-12-17T15:45:07;36.63;;;18.10;;
54993;SDS011;40891;47.242;8.648;2022-12-17T15:47:32;34.67;;;17.73;;
54993;SDS011;40891;47.242;8.648;2022-12-17T15:49:58;36.70;;;17.83;;
54993;SDS011;40891;47.242;8.648;2022-12-17T15:52:23;34.10;;;18.57;;
54993;SDS011;40891;47.242;8.648;2022-12-17T15:54:48;37.30;;;18.07;;
54993;SDS011;40891;47.242;8.648;2022-12-17T15:57:14;35.30;;;18.30;;
54993;SDS011;40891;47.242;8.648;2022-12-17T15:59:39;34.10;;;16.90;;
54993;SDS011;40891;47.242;8.648;2022-12-17T16:02:05;38.33;;;18.83;;
54993;SDS011;40891;47.242;8.648;2022-12-17T16:04:30;38.83;;;17.63;;
54993;SDS011;40891;47.242;8.648;2022-12-17T16:06:55;38.83;;;19.23;;
54993;SDS011;40891;47.242;8.648;2022-12-17T16:09:21;35.00;;;18.20;;
54993;SDS011;40891;47.242;8.648;2022-12-17T16:11:54;34.47;;;18.10;;
54993;SDS011;40891;47.242;8.648;2022-12-17T16:14:21;36.13;;;18.23;;
54993;SDS011;40891;47.242;8.648;2022-12-17T16:16:47;36.00;;;17.27;;
54993;SDS011;40891;47.242;8.648;2022-12-17T16:19:13;35.40;;;18.83;;
54993;SDS011;40891;47.242;8.648;2022-12-17T16:21:38;34.17;;;17.73;;
54993;SDS011;40891;47.242;8.648;2022-12-17T16:24:03;36.20;;;17.97;;
54993;SDS011;40891;47.242;8.648;2022-12-17T16:26:29;37.47;;;18.60;;
54993;SDS011;40891;47.242;8.648;2022-12-17T16:28:55;34.43;;;18.50;;
54993;SDS011;40891;47.242;8.648;2022-12-17T16:31:21;38.90;;;19.83;;
54993;SDS011;40891;47.242;8.648;2022-12-17T16:33:47;33.83;;;17.97;;
54993;SDS011;40891;47.242;8.648;2022-12-17T16:36:13;38.00;;;19.20;;
54993;SDS011;40891;47.242;8.648;2022-12-17T16:38:44;36.80;;;19.20;;
54993;SDS011;40891;47.242;8.648;2022-12-17T16:41:11;36.10;;;19.07;;
54993;SDS011;40891;47.242;8.648;2022-12-17T16:43:37;39.83;;;19.10;;
54993;SDS011;40891;47.242;8.648;2022-12-17T16:46:03;35.60;;;19.20;;
54993;SDS011;40891;47.242;8.648;2022-12-17T16:48:29;38.10;;;18.43;;
54993;SDS011;40891;47.242;8.648;2022-12-17T16:51:01;39.30;;;19.33;;
54993;SDS011;40891;47.242;8.648;2022-12-17T16:53:42;36.90;;;17.40;;
54993;SDS011;40891;47.242;8.648;2022-12-17T16:56:13;40.23;;;18.40;;
54993;SDS011;40891;47.242;8.648;2022-12-17T16:58:40;38.40;;;19.17;;
54993;SDS011;40891;47.242;8.648;2022-12-17T17:01:05;40.80;;;19.27;;
54993;SDS011;40891;47.242;8.648;2022-12-17T17:03:30;38.87;;;19.87;;
54993;SDS011;40891;47.242;8.648;2022-12-17T17:05:58;37.40;;;18.77;;
54993;SDS011;40891;47.242;8.648;2022-12-17T17:08:24;41.33;;;19.47;;
54993;SDS011;40891;47.242;8.648;2022-12-17T17:10:50;35.70;;;18.87;;
54993;SDS011;40891;47.242;8.648;2022-12-17T17:13:15;33.33;;;16.57;;
54993;SDS011;40891;47.242;8.648;2022-12-17T17:15:40;38.13;;;18.57;;